sensor_id;sensor_type;location;lat;lon;timestamp;P1;durP1;ratioP1;P2;durP2;ratioP2
21354;SDS011;10835;50.148;19.760;2022-09-09T00:00:26;7.28;;;6.03;;
21354;SDS011;10835;50.148;19.760;2022-09-09T00:02:59;8.70;;;6.05;;
21354;SDS011;10835;50.148;19.760;2022-09-09T00:05:36;10.77;;;7.50;;
21354;SDS011;10835;50.148;19.760;2022-09-09T00:08:13;11.73;;;8.23;;
21354;SDS011;10835;50.148;19.760;2022-09-09T00:10:48;8.32;;;6.80;;
21354;SDS011;10835;50.148;19.760;2022-09-09T00:13:22;8.35;;;7.05;;
21354;SDS011;10835;50.148;19.760;2022-09-09T00:15:59;10.68;;;8.05;;
21354;SDS011;10835;50.148;19.760;2022-09-09T00:18:45;10.40;;;7.53;;
21354;SDS011;10835;50.148;19.760;2022-09-09T00:21:21;10.60;;;8.32;;
21354;SDS011;10835;50.148;19.760;2022-09-09T00:23:53;9.70;;;7.85;;
21354;SDS011;10835;50.148;19.760;2022-09-09T00:26:24;9.85;;;7.60;;
21354;SDS011;10835;50.148;19.760;2022-09-09T00:29:00;10.88;;;7.40;;
21354;SDS011;10835;50.148;19.760;2022-09-09T00:31:34;9.80;;;7.78;;
21354;SDS011;10835;50.148;19.760;2022-09-09T00:34:05;11.73;;;7.35;;
21354;SDS011;10835;50.148;19.760;2022-09-09T00:36:40;9.70;;;7.38;;
21354;SDS011;10835;50.148;19.760;2022-09-09T00:39:12;10.50;;;7.95;;
21354;SDS011;10835;50.148;19.760;2022-09-09T00:41:49;11.05;;;8.85;;
21354;SDS011;10835;50.148;19.760;2022-09-09T00:44:36;9.35;;;6.55;;
21354;SDS011;10835;50.148;19.760;2022-09-09T00:47:15;10.25;;;7.90;;
21354;SDS011;10835;50.148;19.760;2022-09-09T00:49:56;9.10;;;7.05;;
21354;SDS011;10835;50.148;19.760;2022-09-09T00:52:36;8.43;;;6.63;;
21354;SDS011;10835;50.148;19.760;2022-09-09T00:55:12;7.15;;;5.90;;
21354;SDS011;10835;50.148;19.760;2022-09-09T00:57:47;5.28;;;4.53;;
21354;SDS011;10835;50.148;19.760;2022-09-09T01:00:20;5.82;;;5.20;;
21354;SDS011;10835;50.148;19.760;2022-09-09T01:05:48;6.60;;;4.95;;
21354;SDS011;10835;50.148;19.760;2022-09-09T01:08:31;7.47;;;5.30;;
21354;SDS011;10835;50.148;19.760;2022-09-09T01:11:10;8.15;;;5.30;;
21354;SDS011;10835;50.148;19.760;2022-09-09T01:13:45;5.63;;;5.03;;
21354;SDS011;10835;50.148;19.760;2022-09-09T01:16:14;9.38;;;5.65;;
21354;SDS011;10835;50.148;19.760;2022-09-09T01:18:45;7.72;;;5.82;;
21354;SDS011;10835;50.148;19.760;2022-09-09T01:21:19;10.45;;;5.10;;
21354;SDS011;10835;50.148;19.760;2022-09-09T01:24:03;7.70;;;5.70;;
21354;SDS011;10835;50.148;19.760;2022-09-09T01:26:55;9.05;;;5.70;;
21354;SDS011;10835;50.148;19.760;2022-09-09T01:29:25;6.20;;;4.93;;
21354;SDS011;10835;50.148;19.760;2022-09-09T01:31:54;8.23;;;6.32;;
21354;SDS011;10835;50.148;19.760;2022-09-09T01:34:25;7.28;;;6.32;;
21354;SDS011;10835;50.148;19.760;2022-09-09T01:36:57;9.70;;;7.05;;
21354;SDS011;10835;50.148;19.760;2022-09-09T01:39:30;11.25;;;7.45;;
21354;SDS011;10835;50.148;19.760;2022-09-09T01:42:05;9.70;;;6.40;;
21354;SDS011;10835;50.148;19.760;2022-09-09T01:44:36;7.45;;;5.47;;
21354;SDS011;10835;50.148;19.760;2022-09-09T01:47:05;7.15;;;5.40;;
21354;SDS011;10835;50.148;19.760;2022-09-09T01:49:39;7.55;;;6.07;;
21354;SDS011;10835;50.148;19.760;2022-09-09T01:52:16;8.52;;;5.38;;
21354;SDS011;10835;50.148;19.760;2022-09-09T01:54:45;7.93;;;5.88;;
21354;SDS011;10835;50.148;19.760;2022-09-09T01:57:20;9.43;;;6.65;;
21354;SDS011;10835;50.148;19.760;2022-09-09T01:59:57;11.93;;;7.20;;
21354;SDS011;10835;50.148;19.760;2022-09-09T02:02:42;12.70;;;8.13;;
21354;SDS011;10835;50.148;19.760;2022-09-09T02:05:23;10.77;;;7.72;;
21354;SDS011;10835;50.148;19.760;2022-09-09T02:08:11;10.70;;;7.95;;
21354;SDS011;10835;50.148;19.760;2022-09-09T02:10:55;12.38;;;8.68;;
21354;SDS011;10835;50.148;19.760;2022-09-09T02:13:51;11.45;;;8.20;;
21354;SDS011;10835;50.148;19.760;2022-09-09T02:16:24;8.88;;;7.95;;
21354;SDS011;10835;50.148;19.760;2022-09-09T02:18:57;10.23;;;8.48;;
21354;SDS011;10835;50.148;19.760;2022-09-09T02:21:38;14.63;;;9.55;;
21354;SDS011;10835;50.148;19.760;2022-09-09T02:24:09;14.40;;;10.05;;
21354;SDS011;10835;50.148;19.760;2022-09-09T02:26:51;10.93;;;9.02;;
21354;SDS011;10835;50.148;19.760;2022-09-09T02:29:27;11.95;;;9.15;;
21354;SDS011;10835;50.148;19.760;2022-09-09T02:32:01;11.45;;;9.10;;
21354;SDS011;10835;50.148;19.760;2022-09-09T02:34:37;12.77;;;8.77;;
21354;SDS011;10835;50.148;19.760;2022-09-09T02:37:11;11.38;;;9.00;;
21354;SDS011;10835;50.148;19.760;2022-09-09T02:39:46;12.85;;;9.38;;
21354;SDS011;10835;50.148;19.760;2022-09-09T02:42:19;13.85;;;9.05;;
21354;SDS011;10835;50.148;19.760;2022-09-09T02:44:53;13.35;;;10.10;;
21354;SDS011;10835;50.148;19.760;2022-09-09T02:47:25;12.88;;;8.73;;
21354;SDS011;10835;50.148;19.760;2022-09-09T02:50:04;10.48;;;8.23;;
21354;SDS011;10835;50.148;19.760;2022-09-09T02:52:40;15.40;;;10.80;;
21354;SDS011;10835;50.148;19.760;2022-09-09T02:55:16;14.35;;;10.27;;
21354;SDS011;10835;50.148;19.760;2022-09-09T02:57:55;16.33;;;10.93;;
21354;SDS011;10835;50.148;19.760;2022-09-09T03:00:29;15.02;;;10.98;;
21354;SDS011;10835;50.148;19.760;2022-09-09T03:03:00;14.50;;;9.82;;
21354;SDS011;10835;50.148;19.760;2022-09-09T03:05:28;14.30;;;10.30;;
21354;SDS011;10835;50.148;19.760;2022-09-09T03:07:57;11.82;;;8.70;;
21354;SDS011;10835;50.148;19.760;2022-09-09T03:10:25;9.85;;;7.55;;
21354;SDS011;10835;50.148;19.760;2022-09-09T03:12:53;13.90;;;7.97;;
21354;SDS011;10835;50.148;19.760;2022-09-09T03:15:21;13.05;;;9.75;;
21354;SDS011;10835;50.148;19.760;2022-09-09T03:17:51;13.25;;;9.25;;
21354;SDS011;10835;50.148;19.760;2022-09-09T03:20:21;15.52;;;11.00;;
21354;SDS011;10835;50.148;19.760;2022-09-09T03:22:49;14.93;;;10.98;;
21354;SDS011;10835;50.148;19.760;2022-09-09T03:25:17;13.27;;;10.15;;
21354;SDS011;10835;50.148;19.760;2022-09-09T03:27:45;18.30;;;10.88;;
21354;SDS011;10835;50.148;19.760;2022-09-09T03:30:14;16.55;;;11.98;;
21354;SDS011;10835;50.148;19.760;2022-09-09T03:32:43;15.88;;;11.07;;
21354;SDS011;10835;50.148;19.760;2022-09-09T03:35:16;18.63;;;12.35;;
21354;SDS011;10835;50.148;19.760;2022-09-09T03:37:44;18.75;;;12.93;;
21354;SDS011;10835;50.148;19.760;2022-09-09T03:40:13;22.15;;;12.55;;
21354;SDS011;10835;50.148;19.760;2022-09-09T03:42:44;19.00;;;12.60;;
21354;SDS011;10835;50.148;19.760;2022-09-09T03:45:12;18.98;;;13.05;;
21354;SDS011;10835;50.148;19.760;2022-09-09T03:47:40;17.88;;;12.02;;
21354;SDS011;10835;50.148;19.760;2022-09-09T03:50:08;18.52;;;13.85;;
21354;SDS011;10835;50.148;19.760;2022-09-09T03:52:43;18.85;;;12.20;;
21354;SDS011;10835;50.148;19.760;2022-09-09T03:55:18;18.60;;;11.40;;
21354;SDS011;10835;50.148;19.760;2022-09-09T03:57:46;14.77;;;10.65;;
21354;SDS011;10835;50.148;19.760;2022-09-09T04:00:14;16.00;;;10.63;;
21354;SDS011;10835;50.148;19.760;2022-09-09T04:02:47;20.13;;;12.10;;
21354;SDS011;10835;50.148;19.760;2022-09-09T04:05:16;18.23;;;12.27;;
21354;SDS011;10835;50.148;19.760;2022-09-09T04:07:47;12.88;;;9.73;;
21354;SDS011;10835;50.148;19.760;2022-09-09T04:10:17;18.25;;;13.25;;
21354;SDS011;10835;50.148;19.760;2022-09-09T04:12:45;18.63;;;12.98;;
21354;SDS011;10835;50.148;19.760;2022-09-09T04:15:15;15.80;;;10.77;;
21354;SDS011;10835;50.148;19.760;2022-09-09T04:17:45;15.32;;;11.20;;
21354;SDS011;10835;50.148;19.760;2022-09-09T04:20:14;14.63;;;10.73;;
21354;SDS011;10835;50.148;19.760;2022-09-09T04:22:44;18.05;;;11.23;;
21354;SDS011;10835;50.148;19.760;2022-09-09T04:25:14;14.38;;;11.20;;
21354;SDS011;10835;50.148;19.760;2022-09-09T04:27:43;13.55;;;10.68;;
21354;SDS011;10835;50.148;19.760;2022-09-09T04:30:12;15.82;;;11.73;;
21354;SDS011;10835;50.148;19.760;2022-09-09T04:32:40;15.35;;;9.93;;
21354;SDS011;10835;50.148;19.760;2022-09-09T04:35:08;11.10;;;8.02;;
21354;SDS011;10835;50.148;19.760;2022-09-09T04:37:36;14.60;;;11.10;;
21354;SDS011;10835;50.148;19.760;2022-09-09T04:40:05;12.73;;;9.48;;
21354;SDS011;10835;50.148;19.760;2022-09-09T04:42:41;15.95;;;11.00;;
21354;SDS011;10835;50.148;19.760;2022-09-09T04:45:12;14.60;;;10.40;;
21354;SDS011;10835;50.148;19.760;2022-09-09T04:47:41;10.93;;;7.85;;
21354;SDS011;10835;50.148;19.760;2022-09-09T04:50:09;11.48;;;9.38;;
21354;SDS011;10835;50.148;19.760;2022-09-09T04:52:38;13.75;;;10.05;;
21354;SDS011;10835;50.148;19.760;2022-09-09T04:55:07;14.63;;;10.43;;
21354;SDS011;10835;50.148;19.760;2022-09-09T04:57:37;15.20;;;11.43;;
21354;SDS011;10835;50.148;19.760;2022-09-09T05:00:07;11.02;;;7.88;;
21354;SDS011;10835;50.148;19.760;2022-09-09T05:02:39;14.35;;;9.00;;
21354;SDS011;10835;50.148;19.760;2022-09-09T05:05:08;13.55;;;10.07;;
21354;SDS011;10835;50.148;19.760;2022-09-09T05:07:38;16.15;;;11.27;;
21354;SDS011;10835;50.148;19.760;2022-09-09T05:10:08;17.40;;;12.15;;
21354;SDS011;10835;50.148;19.760;2022-09-09T05:12:36;13.45;;;10.65;;
21354;SDS011;10835;50.148;19.760;2022-09-09T05:15:07;16.23;;;11.98;;
21354;SDS011;10835;50.148;19.760;2022-09-09T05:17:38;16.60;;;12.23;;
21354;SDS011;10835;50.148;19.760;2022-09-09T05:20:07;17.98;;;12.90;;
21354;SDS011;10835;50.148;19.760;2022-09-09T05:22:41;19.10;;;13.80;;
21354;SDS011;10835;50.148;19.760;2022-09-09T05:25:10;18.35;;;12.85;;
21354;SDS011;10835;50.148;19.760;2022-09-09T05:27:38;19.30;;;13.10;;
21354;SDS011;10835;50.148;19.760;2022-09-09T05:30:09;22.88;;;14.30;;
21354;SDS011;10835;50.148;19.760;2022-09-09T05:32:38;18.45;;;12.20;;
21354;SDS011;10835;50.148;19.760;2022-09-09T05:35:07;23.85;;;15.35;;
21354;SDS011;10835;50.148;19.760;2022-09-09T05:37:38;23.40;;;16.00;;
21354;SDS011;10835;50.148;19.760;2022-09-09T05:40:07;19.52;;;14.43;;
21354;SDS011;10835;50.148;19.760;2022-09-09T05:42:37;15.30;;;10.05;;
21354;SDS011;10835;50.148;19.760;2022-09-09T05:45:10;21.48;;;13.48;;
21354;SDS011;10835;50.148;19.760;2022-09-09T05:47:38;19.92;;;13.93;;
21354;SDS011;10835;50.148;19.760;2022-09-09T05:50:09;23.25;;;14.95;;
21354;SDS011;10835;50.148;19.760;2022-09-09T05:52:37;18.70;;;11.60;;
21354;SDS011;10835;50.148;19.760;2022-09-09T05:55:06;23.83;;;15.52;;
21354;SDS011;10835;50.148;19.760;2022-09-09T05:57:35;22.70;;;15.38;;
21354;SDS011;10835;50.148;19.760;2022-09-09T06:00:04;16.48;;;10.00;;
21354;SDS011;10835;50.148;19.760;2022-09-09T06:02:40;20.33;;;13.60;;
21354;SDS011;10835;50.148;19.760;2022-09-09T06:05:11;26.42;;;16.80;;
21354;SDS011;10835;50.148;19.760;2022-09-09T06:07:41;29.95;;;19.23;;
21354;SDS011;10835;50.148;19.760;2022-09-09T06:10:11;18.48;;;11.77;;
21354;SDS011;10835;50.148;19.760;2022-09-09T06:12:40;23.60;;;14.60;;
21354;SDS011;10835;50.148;19.760;2022-09-09T06:15:09;21.25;;;12.68;;
21354;SDS011;10835;50.148;19.760;2022-09-09T06:17:37;23.98;;;13.80;;
21354;SDS011;10835;50.148;19.760;2022-09-09T06:20:09;28.55;;;18.65;;
21354;SDS011;10835;50.148;19.760;2022-09-09T06:22:38;25.60;;;15.90;;
21354;SDS011;10835;50.148;19.760;2022-09-09T06:25:07;14.02;;;9.88;;
21354;SDS011;10835;50.148;19.760;2022-09-09T06:27:40;23.95;;;15.35;;
21354;SDS011;10835;50.148;19.760;2022-09-09T06:30:10;25.02;;;14.95;;
21354;SDS011;10835;50.148;19.760;2022-09-09T06:32:40;19.08;;;12.05;;
21354;SDS011;10835;50.148;19.760;2022-09-09T06:35:11;16.60;;;10.88;;
21354;SDS011;10835;50.148;19.760;2022-09-09T06:37:44;22.35;;;14.27;;
21354;SDS011;10835;50.148;19.760;2022-09-09T06:40:17;15.48;;;10.48;;
21354;SDS011;10835;50.148;19.760;2022-09-09T06:42:45;15.13;;;10.48;;
21354;SDS011;10835;50.148;19.760;2022-09-09T06:45:28;15.95;;;9.70;;
21354;SDS011;10835;50.148;19.760;2022-09-09T06:47:57;20.23;;;14.73;;
21354;SDS011;10835;50.148;19.760;2022-09-09T06:50:29;21.83;;;15.35;;
21354;SDS011;10835;50.148;19.760;2022-09-09T06:52:57;18.38;;;11.93;;
21354;SDS011;10835;50.148;19.760;2022-09-09T06:55:26;21.45;;;12.80;;
21354;SDS011;10835;50.148;19.760;2022-09-09T06:57:54;17.13;;;13.20;;
21354;SDS011;10835;50.148;19.760;2022-09-09T07:00:23;20.67;;;14.50;;
21354;SDS011;10835;50.148;19.760;2022-09-09T07:02:52;15.73;;;11.50;;
21354;SDS011;10835;50.148;19.760;2022-09-09T07:05:21;16.08;;;11.00;;
21354;SDS011;10835;50.148;19.760;2022-09-09T07:07:53;16.40;;;10.80;;
21354;SDS011;10835;50.148;19.760;2022-09-09T07:10:22;17.10;;;10.63;;
21354;SDS011;10835;50.148;19.760;2022-09-09T07:12:50;7.63;;;6.75;;
21354;SDS011;10835;50.148;19.760;2022-09-09T07:15:21;16.27;;;11.30;;
21354;SDS011;10835;50.148;19.760;2022-09-09T07:17:51;12.85;;;9.02;;
21354;SDS011;10835;50.148;19.760;2022-09-09T07:20:20;9.90;;;6.72;;
21354;SDS011;10835;50.148;19.760;2022-09-09T07:22:49;13.45;;;8.73;;
21354;SDS011;10835;50.148;19.760;2022-09-09T07:25:18;10.02;;;7.07;;
21354;SDS011;10835;50.148;19.760;2022-09-09T07:27:47;14.13;;;9.55;;
21354;SDS011;10835;50.148;19.760;2022-09-09T07:30:15;15.52;;;9.30;;
21354;SDS011;10835;50.148;19.760;2022-09-09T07:32:52;12.25;;;8.15;;
21354;SDS011;10835;50.148;19.760;2022-09-09T07:35:23;8.77;;;6.55;;
21354;SDS011;10835;50.148;19.760;2022-09-09T07:37:53;8.23;;;5.43;;
21354;SDS011;10835;50.148;19.760;2022-09-09T07:40:23;8.55;;;7.32;;
21354;SDS011;10835;50.148;19.760;2022-09-09T07:42:52;6.72;;;5.22;;
21354;SDS011;10835;50.148;19.760;2022-09-09T07:45:20;7.10;;;5.18;;
21354;SDS011;10835;50.148;19.760;2022-09-09T07:47:49;12.73;;;7.32;;
21354;SDS011;10835;50.148;19.760;2022-09-09T07:50:17;10.43;;;5.75;;
21354;SDS011;10835;50.148;19.760;2022-09-09T07:52:45;7.43;;;5.63;;
21354;SDS011;10835;50.148;19.760;2022-09-09T07:55:13;8.15;;;6.30;;
21354;SDS011;10835;50.148;19.760;2022-09-09T07:57:43;4.70;;;4.07;;
21354;SDS011;10835;50.148;19.760;2022-09-09T08:00:12;6.90;;;5.20;;
21354;SDS011;10835;50.148;19.760;2022-09-09T08:02:46;5.72;;;4.78;;
21354;SDS011;10835;50.148;19.760;2022-09-09T08:05:15;8.38;;;4.85;;
21354;SDS011;10835;50.148;19.760;2022-09-09T08:07:44;9.15;;;5.93;;
21354;SDS011;10835;50.148;19.760;2022-09-09T08:10:13;12.43;;;5.78;;
21354;SDS011;10835;50.148;19.760;2022-09-09T08:12:45;7.68;;;5.57;;
21354;SDS011;10835;50.148;19.760;2022-09-09T08:15:33;5.35;;;4.20;;
21354;SDS011;10835;50.148;19.760;2022-09-09T08:18:02;9.30;;;4.55;;
21354;SDS011;10835;50.148;19.760;2022-09-09T08:20:31;4.75;;;3.63;;
21354;SDS011;10835;50.148;19.760;2022-09-09T08:23:00;5.53;;;4.97;;
21354;SDS011;10835;50.148;19.760;2022-09-09T08:25:28;7.32;;;4.32;;
21354;SDS011;10835;50.148;19.760;2022-09-09T08:27:59;4.65;;;3.70;;
21354;SDS011;10835;50.148;19.760;2022-09-09T08:30:29;5.75;;;3.30;;
21354;SDS011;10835;50.148;19.760;2022-09-09T08:32:57;3.78;;;3.00;;
21354;SDS011;10835;50.148;19.760;2022-09-09T08:35:27;3.55;;;2.92;;
21354;SDS011;10835;50.148;19.760;2022-09-09T08:37:59;4.53;;;3.70;;
21354;SDS011;10835;50.148;19.760;2022-09-09T08:40:32;4.28;;;3.22;;
21354;SDS011;10835;50.148;19.760;2022-09-09T08:43:08;4.22;;;3.50;;
21354;SDS011;10835;50.148;19.760;2022-09-09T08:45:39;7.28;;;3.10;;
21354;SDS011;10835;50.148;19.760;2022-09-09T08:48:22;5.97;;;2.90;;
21354;SDS011;10835;50.148;19.760;2022-09-09T08:51:01;2.83;;;2.35;;
21354;SDS011;10835;50.148;19.760;2022-09-09T08:53:35;2.42;;;1.90;;
21354;SDS011;10835;50.148;19.760;2022-09-09T08:56:11;4.38;;;2.47;;
21354;SDS011;10835;50.148;19.760;2022-09-09T08:58:49;2.25;;;2.00;;
21354;SDS011;10835;50.148;19.760;2022-09-09T09:01:47;1.95;;;1.70;;
21354;SDS011;10835;50.148;19.760;2022-09-09T09:07:42;2.30;;;1.92;;
21354;SDS011;10835;50.148;19.760;2022-09-09T09:10:28;3.47;;;1.77;;
21354;SDS011;10835;50.148;19.760;2022-09-09T09:13:12;2.55;;;2.03;;
21354;SDS011;10835;50.148;19.760;2022-09-09T09:15:46;2.55;;;1.92;;
21354;SDS011;10835;50.148;19.760;2022-09-09T09:18:19;5.60;;;1.92;;
21354;SDS011;10835;50.148;19.760;2022-09-09T09:20:50;7.22;;;2.13;;
21354;SDS011;10835;50.148;19.760;2022-09-09T09:23:29;3.28;;;2.03;;
21354;SDS011;10835;50.148;19.760;2022-09-09T09:26:10;2.67;;;1.85;;
21354;SDS011;10835;50.148;19.760;2022-09-09T09:28:42;2.60;;;1.65;;
21354;SDS011;10835;50.148;19.760;2022-09-09T09:31:15;6.13;;;1.48;;
21354;SDS011;10835;50.148;19.760;2022-09-09T09:33:47;2.28;;;1.77;;
21354;SDS011;10835;50.148;19.760;2022-09-09T09:36:23;1.70;;;1.45;;
21354;SDS011;10835;50.148;19.760;2022-09-09T09:38:54;3.55;;;1.38;;
21354;SDS011;10835;50.148;19.760;2022-09-09T09:41:44;1.27;;;1.10;;
21354;SDS011;10835;50.148;19.760;2022-09-09T09:44:22;2.65;;;1.20;;
21354;SDS011;10835;50.148;19.760;2022-09-09T09:47:06;1.60;;;1.48;;
21354;SDS011;10835;50.148;19.760;2022-09-09T09:49:36;1.70;;;1.17;;
21354;SDS011;10835;50.148;19.760;2022-09-09T09:52:04;1.92;;;1.48;;
21354;SDS011;10835;50.148;19.760;2022-09-09T09:54:37;2.58;;;1.35;;
21354;SDS011;10835;50.148;19.760;2022-09-09T09:57:08;1.63;;;1.50;;
21354;SDS011;10835;50.148;19.760;2022-09-09T09:59:38;2.13;;;1.50;;
21354;SDS011;10835;50.148;19.760;2022-09-09T10:02:31;1.80;;;1.30;;
21354;SDS011;10835;50.148;19.760;2022-09-09T10:05:13;3.47;;;1.30;;
21354;SDS011;10835;50.148;19.760;2022-09-09T10:07:45;1.30;;;1.15;;
21354;SDS011;10835;50.148;19.760;2022-09-09T10:10:15;1.77;;;1.60;;
21354;SDS011;10835;50.148;19.760;2022-09-09T10:12:54;1.55;;;1.33;;
21354;SDS011;10835;50.148;19.760;2022-09-09T10:15:31;2.97;;;1.33;;
21354;SDS011;10835;50.148;19.760;2022-09-09T10:18:12;1.65;;;1.00;;
21354;SDS011;10835;50.148;19.760;2022-09-09T10:20:51;1.77;;;1.27;;
21354;SDS011;10835;50.148;19.760;2022-09-09T10:23:29;1.80;;;0.80;;
21354;SDS011;10835;50.148;19.760;2022-09-09T10:26:17;0.80;;;0.80;;
21354;SDS011;10835;50.148;19.760;2022-09-09T10:29:01;1.95;;;1.30;;
21354;SDS011;10835;50.148;19.760;2022-09-09T10:31:39;1.70;;;1.05;;
21354;SDS011;10835;50.148;19.760;2022-09-09T10:34:19;1.23;;;1.13;;
21354;SDS011;10835;50.148;19.760;2022-09-09T10:36:59;1.83;;;1.33;;
21354;SDS011;10835;50.148;19.760;2022-09-09T10:39:33;1.42;;;0.80;;
21354;SDS011;10835;50.148;19.760;2022-09-09T10:42:09;2.05;;;1.30;;
21354;SDS011;10835;50.148;19.760;2022-09-09T10:44:46;3.50;;;1.35;;
21354;SDS011;10835;50.148;19.760;2022-09-09T10:47:29;2.58;;;1.02;;
21354;SDS011;10835;50.148;19.760;2022-09-09T10:50:18;1.80;;;1.40;;
21354;SDS011;10835;50.148;19.760;2022-09-09T10:53:20;2.80;;;1.30;;
21354;SDS011;10835;50.148;19.760;2022-09-09T10:55:56;2.67;;;1.20;;
21354;SDS011;10835;50.148;19.760;2022-09-09T10:58:30;5.25;;;1.10;;
21354;SDS011;10835;50.148;19.760;2022-09-09T11:01:06;1.23;;;1.00;;
21354;SDS011;10835;50.148;19.760;2022-09-09T11:03:41;3.10;;;1.15;;
21354;SDS011;10835;50.148;19.760;2022-09-09T11:06:12;1.48;;;1.27;;
21354;SDS011;10835;50.148;19.760;2022-09-09T11:08:44;1.13;;;1.00;;
21354;SDS011;10835;50.148;19.760;2022-09-09T11:11:13;1.05;;;1.00;;
21354;SDS011;10835;50.148;19.760;2022-09-09T11:13:47;1.42;;;1.02;;
21354;SDS011;10835;50.148;19.760;2022-09-09T11:16:22;1.08;;;1.00;;
21354;SDS011;10835;50.148;19.760;2022-09-09T11:19:00;1.05;;;0.98;;
21354;SDS011;10835;50.148;19.760;2022-09-09T11:21:34;0.80;;;0.80;;
21354;SDS011;10835;50.148;19.760;2022-09-09T11:24:10;1.13;;;1.08;;
21354;SDS011;10835;50.148;19.760;2022-09-09T11:26:44;1.05;;;0.95;;
21354;SDS011;10835;50.148;19.760;2022-09-09T11:29:21;2.00;;;0.93;;
21354;SDS011;10835;50.148;19.760;2022-09-09T11:32:09;1.02;;;0.90;;
21354;SDS011;10835;50.148;19.760;2022-09-09T11:34:53;0.85;;;0.82;;
21354;SDS011;10835;50.148;19.760;2022-09-09T11:37:35;1.35;;;0.80;;
21354;SDS011;10835;50.148;19.760;2022-09-09T11:40:22;1.10;;;0.90;;
21354;SDS011;10835;50.148;19.760;2022-09-09T11:43:00;0.80;;;0.80;;
21354;SDS011;10835;50.148;19.760;2022-09-09T11:45:32;1.58;;;1.02;;
21354;SDS011;10835;50.148;19.760;2022-09-09T11:48:03;0.82;;;0.82;;
21354;SDS011;10835;50.148;19.760;2022-09-09T11:50:33;1.30;;;0.80;;
21354;SDS011;10835;50.148;19.760;2022-09-09T11:53:06;2.65;;;0.80;;
21354;SDS011;10835;50.148;19.760;2022-09-09T11:58:56;1.17;;;0.80;;
21354;SDS011;10835;50.148;19.760;2022-09-09T12:01:33;0.95;;;0.68;;
21354;SDS011;10835;50.148;19.760;2022-09-09T12:04:13;1.50;;;0.90;;
21354;SDS011;10835;50.148;19.760;2022-09-09T12:06:58;1.65;;;0.88;;
21354;SDS011;10835;50.148;19.760;2022-09-09T12:09:46;5.07;;;1.00;;
21354;SDS011;10835;50.148;19.760;2022-09-09T12:12:22;4.32;;;0.80;;
21354;SDS011;10835;50.148;19.760;2022-09-09T12:14:57;0.90;;;0.80;;
21354;SDS011;10835;50.148;19.760;2022-09-09T12:17:29;0.90;;;0.90;;
21354;SDS011;10835;50.148;19.760;2022-09-09T12:20:00;2.25;;;0.90;;
21354;SDS011;10835;50.148;19.760;2022-09-09T12:22:35;0.80;;;0.80;;
21354;SDS011;10835;50.148;19.760;2022-09-09T12:25:15;0.63;;;0.63;;
21354;SDS011;10835;50.148;19.760;2022-09-09T12:27:51;0.70;;;0.70;;
21354;SDS011;10835;50.148;19.760;2022-09-09T12:30:30;3.50;;;1.05;;
21354;SDS011;10835;50.148;19.760;2022-09-09T12:33:06;1.42;;;0.80;;
21354;SDS011;10835;50.148;19.760;2022-09-09T12:35:39;1.30;;;0.77;;
21354;SDS011;10835;50.148;19.760;2022-09-09T12:38:12;1.83;;;1.10;;
21354;SDS011;10835;50.148;19.760;2022-09-09T12:40:54;1.00;;;0.90;;
21354;SDS011;10835;50.148;19.760;2022-09-09T12:43:26;1.52;;;1.15;;
21354;SDS011;10835;50.148;19.760;2022-09-09T12:45:56;1.35;;;0.77;;
21354;SDS011;10835;50.148;19.760;2022-09-09T12:48:29;1.60;;;0.93;;
21354;SDS011;10835;50.148;19.760;2022-09-09T12:51:01;1.73;;;1.30;;
21354;SDS011;10835;50.148;19.760;2022-09-09T12:53:32;1.17;;;0.95;;
21354;SDS011;10835;50.148;19.760;2022-09-09T12:56:04;0.98;;;0.90;;
21354;SDS011;10835;50.148;19.760;2022-09-09T12:58:35;1.00;;;1.00;;
21354;SDS011;10835;50.148;19.760;2022-09-09T13:01:05;1.35;;;0.80;;
21354;SDS011;10835;50.148;19.760;2022-09-09T13:03:41;3.00;;;1.00;;
21354;SDS011;10835;50.148;19.760;2022-09-09T13:06:12;1.30;;;1.10;;
21354;SDS011;10835;50.148;19.760;2022-09-09T13:08:49;1.30;;;1.10;;
21354;SDS011;10835;50.148;19.760;2022-09-09T13:11:20;1.75;;;1.00;;
21354;SDS011;10835;50.148;19.760;2022-09-09T13:13:51;0.88;;;0.88;;
21354;SDS011;10835;50.148;19.760;2022-09-09T13:16:22;1.08;;;0.80;;
21354;SDS011;10835;50.148;19.760;2022-09-09T13:18:57;0.90;;;0.82;;
21354;SDS011;10835;50.148;19.760;2022-09-09T13:21:33;2.15;;;1.17;;
21354;SDS011;10835;50.148;19.760;2022-09-09T13:24:01;0.73;;;0.57;;
21354;SDS011;10835;50.148;19.760;2022-09-09T13:26:35;0.93;;;0.85;;
21354;SDS011;10835;50.148;19.760;2022-09-09T13:29:14;1.08;;;0.90;;
21354;SDS011;10835;50.148;19.760;2022-09-09T13:31:48;1.15;;;0.82;;
21354;SDS011;10835;50.148;19.760;2022-09-09T13:34:26;1.10;;;1.00;;
21354;SDS011;10835;50.148;19.760;2022-09-09T13:36:57;4.53;;;1.00;;
21354;SDS011;10835;50.148;19.760;2022-09-09T13:39:29;0.80;;;0.80;;
21354;SDS011;10835;50.148;19.760;2022-09-09T13:41:58;1.58;;;0.90;;
21354;SDS011;10835;50.148;19.760;2022-09-09T13:44:31;0.98;;;0.98;;
21354;SDS011;10835;50.148;19.760;2022-09-09T13:47:27;1.17;;;1.07;;
21354;SDS011;10835;50.148;19.760;2022-09-09T13:50:09;1.58;;;1.13;;
21354;SDS011;10835;50.148;19.760;2022-09-09T13:52:46;1.70;;;1.27;;
21354;SDS011;10835;50.148;19.760;2022-09-09T13:55:16;1.38;;;1.05;;
21354;SDS011;10835;50.148;19.760;2022-09-09T13:57:52;1.30;;;1.10;;
21354;SDS011;10835;50.148;19.760;2022-09-09T14:00:23;1.25;;;0.82;;
21354;SDS011;10835;50.148;19.760;2022-09-09T14:02:51;1.95;;;0.70;;
21354;SDS011;10835;50.148;19.760;2022-09-09T14:05:22;1.15;;;0.80;;
21354;SDS011;10835;50.148;19.760;2022-09-09T14:07:51;1.02;;;0.73;;
21354;SDS011;10835;50.148;19.760;2022-09-09T14:10:19;0.85;;;0.85;;
21354;SDS011;10835;50.148;19.760;2022-09-09T14:12:48;0.90;;;0.82;;
21354;SDS011;10835;50.148;19.760;2022-09-09T14:15:18;1.75;;;0.82;;
21354;SDS011;10835;50.148;19.760;2022-09-09T14:17:46;1.10;;;0.80;;
21354;SDS011;10835;50.148;19.760;2022-09-09T14:20:15;1.13;;;0.90;;
21354;SDS011;10835;50.148;19.760;2022-09-09T14:22:44;3.22;;;0.98;;
21354;SDS011;10835;50.148;19.760;2022-09-09T14:25:14;0.70;;;0.70;;
21354;SDS011;10835;50.148;19.760;2022-09-09T14:27:42;1.30;;;1.13;;
21354;SDS011;10835;50.148;19.760;2022-09-09T14:30:14;1.42;;;0.90;;
21354;SDS011;10835;50.148;19.760;2022-09-09T14:32:45;1.90;;;0.90;;
21354;SDS011;10835;50.148;19.760;2022-09-09T14:35:13;0.90;;;0.90;;
21354;SDS011;10835;50.148;19.760;2022-09-09T14:37:42;1.60;;;1.00;;
21354;SDS011;10835;50.148;19.760;2022-09-09T14:40:17;1.02;;;0.80;;
21354;SDS011;10835;50.148;19.760;2022-09-09T14:42:45;0.95;;;0.80;;
21354;SDS011;10835;50.148;19.760;2022-09-09T14:45:13;2.00;;;1.20;;
21354;SDS011;10835;50.148;19.760;2022-09-09T14:47:41;1.40;;;0.80;;
21354;SDS011;10835;50.148;19.760;2022-09-09T14:50:10;3.53;;;1.08;;
21354;SDS011;10835;50.148;19.760;2022-09-09T14:52:41;2.97;;;1.20;;
21354;SDS011;10835;50.148;19.760;2022-09-09T14:55:11;4.40;;;1.30;;
21354;SDS011;10835;50.148;19.760;2022-09-09T14:57:40;1.10;;;1.00;;
21354;SDS011;10835;50.148;19.760;2022-09-09T15:00:09;1.33;;;0.90;;
21354;SDS011;10835;50.148;19.760;2022-09-09T15:02:38;2.75;;;1.00;;
21354;SDS011;10835;50.148;19.760;2022-09-09T15:05:07;2.83;;;1.00;;
21354;SDS011;10835;50.148;19.760;2022-09-09T15:07:38;1.10;;;1.00;;
21354;SDS011;10835;50.148;19.760;2022-09-09T15:10:09;3.20;;;1.20;;